createdAt,value
2023-02-06T00:00:56.475Z,77.66
2023-02-06T00:01:56.216Z,77.76
2023-02-06T00:02:56.199Z,77.98
2023-02-06T00:03:56.192Z,77.98
2023-02-06T00:04:56.177Z,77.94
2023-02-06T00:05:56.250Z,78.05
2023-02-06T00:06:56.163Z,78.05
2023-02-06T00:07:56.150Z,77.73
2023-02-06T00:08:56.138Z,77.59
2023-02-06T00:09:56.126Z,77.70
2023-02-06T00:10:56.129Z,77.38
2023-02-06T00:11:56.111Z,77.28
2023-02-06T00:12:56.099Z,77.17
2023-02-06T00:13:56.086Z,77.14
2023-02-06T00:14:56.072Z,76.86
2023-02-06T00:15:56.151Z,76.82
2023-02-06T00:16:56.054Z,76.72
2023-02-06T00:18:04.041Z,76.51
2023-02-06T00:18:56.026Z,76.40
2023-02-06T00:19:56.018Z,76.19
2023-02-06T00:20:56.019Z,75.88
2023-02-06T00:21:55.997Z,75.67
2023-02-06T00:22:55.993Z,75.25
2023-02-06T00:23:55.986Z,74.93
2023-02-06T00:24:55.964Z,74.62
2023-02-06T00:25:55.983Z,74.30
2023-02-06T00:26:55.952Z,74.52
2023-02-06T00:27:55.959Z,74.62
2023-02-06T00:28:55.930Z,74.30
2023-02-06T00:29:55.931Z,74.73
2023-02-06T00:30:56.018Z,74.73
2023-02-06T00:32:45.944Z,73.99
2023-02-06T00:33:45.862Z,74.83
2023-02-06T00:34:45.849Z,74.73
2023-02-06T00:35:45.857Z,74.30
2023-02-06T00:36:45.832Z,74.52
2023-02-06T00:37:45.821Z,74.62
2023-02-06T00:38:45.813Z,74.48
2023-02-06T00:39:45.804Z,74.93
2023-02-06T00:40:45.806Z,75.15
2023-02-06T00:41:45.784Z,75.01
2023-02-06T00:42:45.769Z,75.25
2023-02-06T00:43:45.770Z,75.11
2023-02-06T00:44:45.742Z,75.04
2023-02-06T00:45:45.753Z,74.62
2023-02-06T00:46:45.791Z,74.83
2023-02-06T00:47:45.720Z,74.73
2023-02-06T00:48:45.730Z,74.55
2023-02-06T00:49:45.695Z,74.34
2023-02-06T00:50:52.742Z,73.92
2023-02-06T00:51:45.676Z,74.02
2023-02-06T00:52:45.730Z,74.24
2023-02-06T00:53:45.661Z,74.13
2023-02-06T00:54:45.646Z,74.34
2023-02-06T00:55:45.650Z,74.34
2023-02-06T00:56:45.646Z,74.55
2023-02-06T00:57:45.618Z,74.55
2023-02-06T00:58:45.623Z,74.87
2023-02-06T00:59:45.664Z,74.65
2023-02-06T01:00:45.610Z,74.65
2023-02-06T01:01:45.710Z,74.87
2023-02-06T01:02:45.758Z,74.76
2023-02-06T01:03:53.541Z,74.87
2023-02-06T01:04:45.536Z,74.44
2023-02-06T01:05:52.582Z,74.55
2023-02-06T01:06:45.547Z,74.87
2023-02-06T01:07:45.512Z,75.07
2023-02-06T01:08:45.501Z,75.07
2023-02-06T01:09:45.494Z,75.18
2023-02-06T01:10:45.473Z,75.39
2023-02-06T01:11:45.481Z,74.65
2023-02-06T01:12:45.484Z,74.34
2023-02-06T01:13:45.444Z,74.76
2023-02-06T01:14:45.429Z,74.65
2023-02-06T01:15:45.456Z,74.65
2023-02-06T01:16:45.429Z,74.65
2023-02-06T01:17:45.436Z,74.34
2023-02-06T01:18:45.395Z,74.13
2023-02-06T01:19:45.404Z,74.34
2023-02-06T01:20:45.373Z,74.44
2023-02-06T01:21:45.384Z,74.55
2023-02-06T01:22:45.589Z,74.55
2023-02-06T01:23:45.336Z,74.87
2023-02-06T01:24:45.340Z,74.55
2023-02-06T01:25:45.318Z,74.97
2023-02-06T01:26:45.318Z,74.97
2023-02-06T01:27:45.314Z,75.18
2023-02-06T01:28:45.277Z,75.18
2023-02-06T01:29:45.269Z,75.18
2023-02-06T01:30:45.304Z,75.49
2023-02-06T01:31:45.346Z,75.49
2023-02-06T01:32:45.235Z,75.49
2023-02-06T01:33:45.231Z,75.39
2023-02-06T01:34:45.214Z,75.60
2023-02-06T01:35:45.238Z,75.81
2023-02-06T01:36:45.212Z,75.70
2023-02-06T01:37:45.192Z,75.92
2023-02-06T01:38:45.173Z,76.02
2023-02-06T01:39:45.172Z,76.02
2023-02-06T01:40:45.156Z,75.70
2023-02-06T01:41:45.158Z,75.70
2023-02-06T01:42:45.143Z,75.49
2023-02-06T01:43:45.127Z,75.49
2023-02-06T01:44:45.115Z,75.39
2023-02-06T01:45:45.116Z,75.49
2023-02-06T01:46:45.155Z,75.60
2023-02-06T01:47:45.084Z,75.49
2023-02-06T01:48:45.067Z,75.53
2023-02-06T01:49:45.068Z,75.74
2023-02-06T01:50:45.049Z,75.42
2023-02-06T01:51:45.077Z,75.74
2023-02-06T01:52:45.030Z,75.74
2023-02-06T01:53:45.022Z,75.84
2023-02-06T01:54:45.008Z,75.53
2023-02-06T01:55:45.003Z,75.74
2023-02-06T01:56:45.004Z,76.16
2023-02-06T01:57:44.988Z,76.05
2023-02-06T01:58:44.965Z,75.92
2023-02-06T01:59:44.957Z,76.16
2023-02-06T02:00:45.002Z,76.26
2023-02-06T02:01:44.991Z,76.33
2023-02-06T02:02:44.923Z,76.37
2023-02-06T02:03:44.915Z,76.33
2023-02-06T02:04:44.905Z,76.37
2023-02-06T02:05:44.893Z,76.26
2023-02-06T02:06:44.918Z,76.26
2023-02-06T02:07:44.891Z,76.26
2023-02-06T02:08:44.869Z,76.23
2023-02-06T02:09:44.854Z,76.16
2023-02-06T02:10:44.845Z,76.23
2023-02-06T02:11:44.843Z,76.12
2023-02-06T02:12:44.820Z,76.05
2023-02-06T02:13:44.814Z,75.53
2023-02-06T02:14:44.808Z,75.42
2023-02-06T02:15:44.793Z,75.11
2023-02-06T02:16:44.791Z,75.42
2023-02-06T02:17:44.783Z,75.01
2023-02-06T02:18:44.765Z,75.42
2023-02-06T02:19:44.754Z,75.25
2023-02-06T02:20:44.744Z,75.14
2023-02-06T02:21:44.746Z,75.21
2023-02-06T02:22:44.722Z,75.14
2023-02-06T02:23:44.800Z,75.25
2023-02-06T02:24:44.705Z,75.67
2023-02-06T02:25:44.692Z,75.67
2023-02-06T02:26:44.701Z,76.09
2023-02-06T02:27:44.706Z,76.40
2023-02-06T02:28:44.664Z,76.51
2023-02-06T02:29:44.653Z,76.65
2023-02-06T02:30:44.662Z,76.93
2023-02-06T02:31:44.676Z,76.75
2023-02-06T02:32:44.620Z,77.07
2023-02-06T02:33:44.610Z,77.03
2023-02-06T02:34:44.606Z,77.28
2023-02-06T02:35:44.592Z,77.24
2023-02-06T02:36:44.606Z,77.34
2023-02-06T02:37:44.575Z,77.45
2023-02-06T02:38:44.564Z,77.87
2023-02-06T02:39:44.579Z,77.66
2023-02-06T02:40:44.544Z,77.66
2023-02-06T02:41:44.557Z,77.34
2023-02-06T02:42:44.529Z,77.34
2023-02-06T02:43:44.526Z,77.42
2023-02-06T02:44:44.496Z,77.84
2023-02-06T02:45:44.503Z,77.73
2023-02-06T02:46:44.502Z,77.62
2023-02-06T02:47:44.466Z,77.48
2023-02-06T02:48:44.450Z,77.59
2023-02-06T02:49:44.443Z,77.28
2023-02-06T02:50:44.434Z,77.07
2023-02-06T02:51:44.442Z,77.28
2023-02-06T02:52:44.417Z,77.07
2023-02-06T02:53:44.394Z,76.93
2023-02-06T02:54:44.404Z,76.82
2023-02-06T02:55:44.397Z,76.54
2023-02-06T02:56:44.387Z,76.61
2023-02-06T02:57:44.360Z,76.51
2023-02-06T02:58:44.349Z,76.51
2023-02-06T02:59:44.341Z,76.19
2023-02-06T03:00:44.395Z,76.09
2023-02-06T03:01:44.321Z,76.30
2023-02-06T03:02:44.307Z,75.98
2023-02-06T03:03:44.290Z,75.78
2023-02-06T03:04:44.286Z,76.09
2023-02-06T03:05:44.270Z,75.74
2023-02-06T03:06:44.284Z,75.63
2023-02-06T03:07:44.247Z,75.43
2023-02-06T03:08:44.258Z,75.43
2023-02-06T03:09:45.886Z,75.01
2023-02-06T03:10:44.222Z,75.01
2023-02-06T03:11:44.239Z,75.01
2023-02-06T03:12:44.223Z,74.90
2023-02-06T03:13:44.204Z,74.69
2023-02-06T03:14:44.178Z,74.58
2023-02-06T03:15:44.162Z,74.80
2023-02-06T03:16:44.242Z,74.48
2023-02-06T03:17:44.137Z,74.38
2023-02-06T03:18:44.143Z,74.06
2023-02-06T03:19:44.116Z,73.85
2023-02-06T03:20:44.114Z,74.06
2023-02-06T03:21:44.120Z,74.27
2023-02-06T03:22:44.096Z,74.58
2023-02-06T03:23:44.077Z,74.27
2023-02-06T03:24:44.065Z,74.06
2023-02-06T03:25:44.057Z,74.17
2023-02-06T03:26:44.068Z,74.38
2023-02-06T03:27:44.120Z,74.38
2023-02-06T03:28:44.030Z,73.96
2023-02-06T03:29:44.011Z,73.96
2023-02-06T03:30:44.045Z,74.03
2023-02-06T03:31:44.105Z,73.54
2023-02-06T03:32:43.983Z,73.30
2023-02-06T03:33:43.975Z,73.85
2023-02-06T03:34:43.968Z,73.75
2023-02-06T03:35:43.956Z,73.61
2023-02-06T03:36:43.955Z,73.82
2023-02-06T03:37:43.928Z,73.93
2023-02-06T03:38:43.929Z,73.82
2023-02-06T03:39:43.911Z,73.40
2023-02-06T03:40:43.907Z,73.85
2023-02-06T03:41:43.901Z,73.30
2023-02-06T03:42:43.879Z,73.93
2023-02-06T03:43:44.093Z,73.19
2023-02-06T03:44:43.877Z,73.93
2023-02-06T03:45:43.850Z,73.40
2023-02-06T03:46:43.853Z,73.40
2023-02-06T03:47:43.822Z,73.40
2023-02-06T03:48:43.815Z,73.61
2023-02-06T03:49:43.809Z,73.40
2023-02-06T03:50:43.814Z,72.85
2023-02-06T03:51:43.798Z,72.56
2023-02-06T03:52:43.783Z,72.53
2023-02-06T03:53:43.761Z,71.90
2023-02-06T03:54:43.752Z,72.01
2023-02-06T03:55:43.773Z,72.01
2023-02-06T03:56:43.760Z,71.90
2023-02-06T03:57:43.731Z,71.90
2023-02-06T03:58:43.713Z,72.01
2023-02-06T03:59:43.722Z,71.90
2023-02-06T04:00:43.687Z,71.90
2023-02-06T04:01:43.700Z,71.90
2023-02-06T04:02:43.790Z,71.90
2023-02-06T04:03:43.657Z,72.01
2023-02-06T04:04:43.645Z,72.32
2023-02-06T04:05:43.648Z,72.32
2023-02-06T04:06:43.640Z,72.32
2023-02-06T04:07:43.618Z,72.11
2023-02-06T04:08:43.615Z,72.01
2023-02-06T04:09:43.594Z,71.80
2023-02-06T04:10:43.585Z,71.90
2023-02-06T04:11:43.593Z,72.11
2023-02-06T04:12:43.572Z,72.01
2023-02-06T04:13:43.584Z,72.08
2023-02-06T04:14:43.590Z,71.87
2023-02-06T04:15:43.563Z,71.90
2023-02-06T04:16:43.542Z,72.08
2023-02-06T04:17:58.862Z,72.22
2023-02-06T04:18:44.522Z,71.97
2023-02-06T04:19:43.519Z,71.97
2023-02-06T04:20:43.480Z,72.01
2023-02-06T04:21:43.476Z,71.87
2023-02-06T04:22:43.476Z,71.97
2023-02-06T04:23:43.458Z,71.97
2023-02-06T04:24:43.475Z,72.29
2023-02-06T04:25:43.458Z,72.29
2023-02-06T04:26:43.420Z,72.39
2023-02-06T04:27:43.498Z,72.60
2023-02-06T04:28:43.401Z,72.81
2023-02-06T04:29:43.386Z,72.92
2023-02-06T04:30:43.532Z,72.39
2023-02-06T04:31:43.484Z,72.50
2023-02-06T04:32:43.374Z,72.60
2023-02-06T04:33:43.347Z,72.60
2023-02-06T04:34:43.340Z,73.13
2023-02-06T04:35:43.326Z,73.44
2023-02-06T04:36:43.311Z,73.23
2023-02-06T04:37:43.308Z,73.54
2023-02-06T04:38:43.294Z,74.38
2023-02-06T04:39:43.279Z,73.75
2023-02-06T04:40:43.276Z,73.86
2023-02-06T04:41:43.262Z,74.69
2023-02-06T04:42:43.260Z,74.80
2023-02-06T04:43:43.233Z,74.90
2023-02-06T04:44:43.231Z,75.22
2023-02-06T04:45:43.220Z,75.53
2023-02-06T04:46:43.210Z,75.84
2023-02-06T04:47:43.231Z,75.74
2023-02-06T04:48:43.189Z,75.95
2023-02-06T04:49:43.172Z,75.84
2023-02-06T04:50:43.171Z,76.16
2023-02-06T04:51:43.159Z,76.26
2023-02-06T04:52:43.159Z,76.68
2023-02-06T04:53:43.143Z,76.57
2023-02-06T04:54:43.135Z,76.89
2023-02-06T04:55:43.110Z,76.79
2023-02-06T04:56:43.101Z,77.00
2023-02-06T04:57:43.135Z,77.31
2023-02-06T04:58:43.076Z,77.20
2023-02-06T04:59:43.067Z,77.42
2023-02-06T05:00:43.063Z,77.94
2023-02-06T05:01:43.106Z,77.83
2023-02-06T05:02:43.262Z,78.04
2023-02-06T05:03:43.042Z,78.67
2023-02-06T05:04:43.009Z,78.88
2023-02-06T05:05:43.005Z,79.09
2023-02-06T05:06:42.995Z,79.19
2023-02-06T05:07:43.000Z,78.77
2023-02-06T05:08:42.975Z,79.30
2023-02-06T05:09:42.953Z,79.09
2023-02-06T05:10:42.949Z,79.93
2023-02-06T05:11:42.932Z,80.24
2023-02-06T05:12:42.937Z,80.55
2023-02-06T05:13:42.942Z,80.35
2023-02-06T05:14:42.903Z,80.24
2023-02-06T05:15:42.913Z,80.24
2023-02-06T05:16:42.884Z,80.76
2023-02-06T05:17:42.888Z,80.76
2023-02-06T05:18:42.861Z,80.76
2023-02-06T05:19:42.916Z,81.29
2023-02-06T05:20:42.842Z,81.29
2023-02-06T05:21:42.826Z,80.97
2023-02-06T05:22:42.843Z,81.07
2023-02-06T05:23:42.812Z,81.29
2023-02-06T05:24:42.797Z,81.81
2023-02-06T05:25:42.789Z,82.43
2023-02-06T05:26:42.781Z,82.02
2023-02-06T05:27:42.801Z,82.12
2023-02-06T05:28:42.781Z,82.02
2023-02-06T05:29:42.747Z,82.33
2023-02-06T05:30:42.818Z,82.33
2023-02-06T05:31:42.729Z,82.12
2023-02-06T05:32:42.733Z,82.43
2023-02-06T05:33:42.702Z,82.43
2023-02-06T05:34:42.690Z,82.43
2023-02-06T05:35:42.700Z,82.75
2023-02-06T05:36:42.676Z,82.65
2023-02-06T05:37:42.672Z,82.75
2023-02-06T05:38:42.665Z,83.06
2023-02-06T05:39:42.638Z,83.38
2023-02-06T05:40:42.625Z,83.17
2023-02-06T05:41:42.624Z,83.27
2023-02-06T05:42:42.624Z,83.27
2023-02-06T05:43:42.593Z,83.38
2023-02-06T05:44:42.599Z,83.17
2023-02-06T05:45:42.574Z,83.59
2023-02-06T05:46:42.638Z,83.69
2023-02-06T05:47:42.589Z,83.80
2023-02-06T05:48:42.548Z,83.34
2023-02-06T05:49:42.534Z,83.55
2023-02-06T05:50:43.364Z,83.38
2023-02-06T05:51:42.538Z,83.86
2023-02-06T05:52:42.527Z,83.69
2023-02-06T05:53:42.490Z,83.76
2023-02-06T05:54:42.480Z,83.65
2023-02-06T05:55:42.474Z,83.65
2023-02-06T05:56:42.458Z,83.65
2023-02-06T05:57:42.475Z,83.65
2023-02-06T05:58:42.440Z,84.07
2023-02-06T05:59:42.426Z,83.76
2023-02-06T06:00:42.439Z,83.86
2023-02-06T06:01:42.413Z,83.51
2023-02-06T06:02:42.419Z,83.72
2023-02-06T06:03:42.410Z,83.76
2023-02-06T06:04:42.409Z,83.72
2023-02-06T06:05:42.372Z,83.62
2023-02-06T06:06:42.358Z,83.40
2023-02-06T06:07:42.399Z,83.51
2023-02-06T06:08:42.337Z,83.72
2023-02-06T06:09:42.324Z,83.51
2023-02-06T06:10:42.317Z,83.62
2023-02-06T06:11:42.316Z,83.30
2023-02-06T06:12:42.312Z,83.09
2023-02-06T06:13:42.287Z,83.09
2023-02-06T06:14:42.281Z,82.99
2023-02-06T06:15:42.399Z,83.40
2023-02-06T06:16:42.265Z,83.40
2023-02-06T06:17:42.251Z,83.62
2023-02-06T06:18:42.232Z,83.83
2023-02-06T06:19:42.224Z,83.83
2023-02-06T06:20:42.216Z,83.72
2023-02-06T06:21:42.201Z,83.20
2023-02-06T06:22:42.202Z,83.62
2023-02-06T06:23:42.197Z,83.83
2023-02-06T06:24:42.173Z,84.14
2023-02-06T06:25:42.161Z,83.72
2023-02-06T06:26:42.151Z,84.03
2023-02-06T06:27:42.163Z,84.14
2023-02-06T06:28:42.133Z,84.34
2023-02-06T06:29:42.113Z,84.34
2023-02-06T06:30:42.164Z,84.34
2023-02-06T06:31:42.190Z,84.34
2023-02-06T06:32:42.096Z,84.34
2023-02-06T06:33:42.071Z,84.14
2023-02-06T06:34:42.097Z,84.14
2023-02-06T06:35:42.046Z,84.14
2023-02-06T06:36:42.037Z,84.24
2023-02-06T06:37:42.055Z,84.34
2023-02-06T06:38:42.021Z,84.45
2023-02-06T06:39:42.025Z,84.34
2023-02-06T06:40:42.000Z,84.14
2023-02-06T06:41:41.985Z,84.45
2023-02-06T06:42:41.995Z,84.34
2023-02-06T06:43:41.979Z,84.24
2023-02-06T06:44:41.954Z,84.34
2023-02-06T06:45:41.996Z,84.45
2023-02-06T06:46:41.931Z,85.08
2023-02-06T06:47:41.945Z,84.77
2023-02-06T06:48:41.913Z,84.77
2023-02-06T06:49:41.910Z,85.29
2023-02-06T06:50:41.894Z,85.50
2023-02-06T06:51:41.879Z,85.18
2023-02-06T06:52:41.917Z,85.18
2023-02-06T06:53:41.865Z,85.39
2023-02-06T06:54:41.848Z,85.39
2023-02-06T06:55:41.864Z,85.29
2023-02-06T06:56:41.829Z,85.39
2023-02-06T06:57:41.833Z,85.81
2023-02-06T06:58:41.804Z,86.13
2023-02-06T06:59:41.800Z,86.02
2023-02-06T07:00:41.857Z,85.81
2023-02-06T07:01:41.774Z,85.91
2023-02-06T07:02:41.879Z,86.23
2023-02-06T07:03:41.755Z,86.23
2023-02-06T07:04:49.605Z,85.91
2023-02-06T07:05:41.729Z,86.33
2023-02-06T07:06:41.723Z,86.54
2023-02-06T07:07:41.721Z,86.75
2023-02-06T07:08:41.705Z,86.96
2023-02-06T07:09:41.744Z,86.54
2023-02-06T07:10:41.675Z,86.71
2023-02-06T07:11:42.964Z,86.92
2023-02-06T07:12:41.668Z,86.51
2023-02-06T07:13:41.653Z,86.61
2023-02-06T07:14:41.794Z,87.13
2023-02-06T07:15:41.628Z,86.61
2023-02-06T07:16:41.675Z,86.65
2023-02-06T07:17:41.617Z,86.23
2023-02-06T07:18:41.592Z,86.33
2023-02-06T07:19:41.612Z,86.44
2023-02-06T07:20:49.613Z,86.33
2023-02-06T07:21:41.565Z,86.54
2023-02-06T07:22:41.562Z,86.75
2023-02-06T07:23:41.542Z,86.75
2023-02-06T07:24:41.531Z,86.65
2023-02-06T07:25:41.521Z,86.65
2023-02-06T07:26:41.513Z,86.85
2023-02-06T07:27:41.518Z,86.71
2023-02-06T07:28:41.500Z,86.71
2023-02-06T07:29:41.478Z,87.13
2023-02-06T07:30:41.488Z,87.13
2023-02-06T07:31:41.566Z,87.02
2023-02-06T07:32:41.443Z,87.02
2023-02-06T07:33:41.450Z,86.82
2023-02-06T07:34:41.424Z,86.61
2023-02-06T07:35:41.412Z,86.82
2023-02-06T07:36:41.402Z,86.82
2023-02-06T07:37:41.395Z,86.61
2023-02-06T07:38:41.394Z,86.46
2023-02-06T07:39:41.376Z,86.46
2023-02-06T07:40:45.674Z,86.25
2023-02-06T07:41:41.365Z,86.19
2023-02-06T07:42:41.341Z,86.67
2023-02-06T07:43:41.370Z,86.57
2023-02-06T07:44:41.316Z,86.46
2023-02-06T07:45:41.368Z,86.46
2023-02-06T07:46:41.319Z,86.36
2023-02-06T07:47:41.288Z,86.46
2023-02-06T07:48:41.291Z,86.77
2023-02-06T07:49:41.264Z,86.67
2023-02-06T07:50:41.269Z,86.25
2023-02-06T07:51:41.250Z,86.46
2023-02-06T07:52:41.280Z,86.36
2023-02-06T07:53:41.236Z,86.25
2023-02-06T07:54:41.211Z,86.57
2023-02-06T07:55:41.201Z,86.36
2023-02-06T07:56:41.193Z,86.25
2023-02-06T07:57:41.184Z,86.25
2023-02-06T07:58:41.193Z,86.25
2023-02-06T07:59:41.203Z,86.57
2023-02-06T08:00:41.148Z,86.46
2023-02-06T08:01:41.140Z,86.53
2023-02-06T08:02:41.127Z,86.77
2023-02-06T08:03:41.128Z,86.84
2023-02-06T08:04:41.157Z,86.84
2023-02-06T08:05:41.094Z,86.74
2023-02-06T08:06:41.085Z,86.43
2023-02-06T08:07:41.073Z,86.84
2023-02-06T08:08:41.070Z,86.63
2023-02-06T08:09:41.052Z,87.05
2023-02-06T08:10:41.044Z,86.84
2023-02-06T08:11:41.047Z,87.15
2023-02-06T08:12:41.030Z,87.05
2023-02-06T08:13:41.025Z,87.05
2023-02-06T08:14:41.037Z,87.01
2023-02-06T08:15:41.014Z,86.80
2023-02-06T08:16:41.004Z,87.63
2023-02-06T08:17:40.965Z,87.53
2023-02-06T08:18:40.969Z,87.43
2023-02-06T08:19:40.963Z,87.43
2023-02-06T08:20:40.933Z,87.43
2023-02-06T08:21:40.926Z,87.49
2023-02-06T08:22:40.918Z,86.91
2023-02-06T08:23:40.916Z,87.18
2023-02-06T08:24:40.926Z,87.01
2023-02-06T08:25:40.882Z,86.45
2023-02-06T08:26:40.869Z,86.45
2023-02-06T08:27:40.872Z,86.45
2023-02-06T08:28:42.358Z,86.55
2023-02-06T08:29:40.840Z,86.24
2023-02-06T08:30:40.896Z,85.82
2023-02-06T08:31:41.011Z,86.13
2023-02-06T08:32:40.810Z,85.72
2023-02-06T08:33:40.807Z,85.72
2023-02-06T08:34:40.783Z,85.72
2023-02-06T08:35:40.777Z,85.82
2023-02-06T08:36:43.120Z,85.51
2023-02-06T08:37:40.805Z,85.61
2023-02-06T08:38:40.753Z,85.82
2023-02-06T08:39:40.733Z,85.82
2023-02-06T08:40:40.739Z,85.61
2023-02-06T08:41:40.719Z,85.20
2023-02-06T08:42:40.698Z,84.64
2023-02-06T08:43:40.702Z,84.95
2023-02-06T08:44:40.694Z,84.64
2023-02-06T08:45:40.673Z,85.10
2023-02-06T08:46:40.659Z,84.64
2023-02-06T08:47:40.664Z,85.20
2023-02-06T08:48:40.652Z,85.16
2023-02-06T08:49:40.629Z,84.64
2023-02-06T08:50:40.613Z,84.64
2023-02-06T08:51:40.653Z,84.95
2023-02-06T08:52:40.593Z,84.43
2023-02-06T08:53:40.781Z,84.22
2023-02-06T08:54:40.584Z,84.22
2023-02-06T08:55:40.965Z,84.22
2023-02-06T08:56:40.558Z,84.33
2023-02-06T08:57:40.544Z,84.53
2023-02-06T08:58:40.545Z,84.84
2023-02-06T08:59:40.520Z,84.53
2023-02-06T09:00:40.507Z,85.16
2023-02-06T09:01:40.543Z,84.53
2023-02-06T09:02:40.553Z,85.16
2023-02-06T09:03:40.541Z,85.16
2023-02-06T09:04:40.473Z,84.53
2023-02-06T09:05:40.457Z,84.28
2023-02-06T09:06:40.445Z,84.84
2023-02-06T09:07:40.438Z,84.95
2023-02-06T09:08:40.431Z,85.12
2023-02-06T09:09:40.420Z,84.81
2023-02-06T09:10:40.407Z,84.81
2023-02-06T09:11:40.404Z,85.05
2023-02-06T09:12:40.377Z,85.02
2023-02-06T09:13:40.442Z,84.91
2023-02-06T09:14:40.361Z,84.39
2023-02-06T09:15:40.668Z,84.39
2023-02-06T09:16:40.363Z,84.70
2023-02-06T09:17:40.371Z,84.60
2023-02-06T09:18:40.334Z,85.22
2023-02-06T09:19:40.341Z,85.02
2023-02-06T09:20:40.303Z,85.12
2023-02-06T09:21:40.289Z,84.91
2023-02-06T09:22:40.269Z,85.02
2023-02-06T09:23:40.273Z,85.64
2023-02-06T09:24:40.286Z,85.64
2023-02-06T09:25:40.244Z,85.74
2023-02-06T09:26:53.465Z,85.53
2023-02-06T09:27:41.217Z,85.53
2023-02-06T09:28:40.246Z,85.74
2023-02-06T09:29:40.196Z,85.60
2023-02-06T09:30:40.212Z,85.50
2023-02-06T09:31:40.220Z,85.39
2023-02-06T09:32:40.178Z,85.50
2023-02-06T09:33:40.205Z,85.71
2023-02-06T09:34:40.169Z,85.50
2023-02-06T09:35:40.205Z,85.60
2023-02-06T09:36:40.131Z,85.39
2023-02-06T09:37:40.110Z,85.25
2023-02-06T09:38:40.108Z,85.56
2023-02-06T09:39:40.088Z,85.50
2023-02-06T09:40:40.081Z,85.56
2023-02-06T09:41:40.064Z,85.46
2023-02-06T09:42:40.052Z,85.46
2023-02-06T09:43:40.070Z,85.35
2023-02-06T09:44:40.029Z,85.46
2023-02-06T09:45:40.053Z,85.46
2023-02-06T09:46:40.086Z,85.25
2023-02-06T09:47:40.031Z,85.88
2023-02-06T09:48:40.028Z,85.88
2023-02-06T09:49:39.993Z,85.77
2023-02-06T09:50:39.971Z,85.98
2023-02-06T09:51:39.974Z,85.25
2023-02-06T09:52:39.945Z,85.35
2023-02-06T09:53:39.949Z,85.35
2023-02-06T09:54:39.920Z,85.46
2023-02-06T09:55:39.993Z,85.29
2023-02-06T09:56:39.899Z,85.71
2023-02-06T09:57:39.908Z,85.25
2023-02-06T09:58:39.899Z,85.35
2023-02-06T09:59:39.868Z,85.50
2023-02-06T10:00:39.869Z,85.39
2023-02-06T10:01:39.998Z,86.02
2023-02-06T10:02:39.849Z,85.81
2023-02-06T10:03:39.842Z,85.81
2023-02-06T10:04:39.816Z,86.27
2023-02-06T10:05:39.873Z,86.12
2023-02-06T10:06:39.806Z,86.33
2023-02-06T10:07:39.852Z,86.22
2023-02-06T10:08:39.791Z,86.33
2023-02-06T10:09:39.762Z,86.47
2023-02-06T10:10:39.754Z,86.68
2023-02-06T10:11:39.755Z,86.68
2023-02-06T10:12:39.735Z,86.68
2023-02-06T10:13:39.784Z,87.06
2023-02-06T10:14:39.708Z,86.85
2023-02-06T10:15:39.739Z,86.99
2023-02-06T10:16:39.682Z,86.58
2023-02-06T10:17:39.680Z,87.06
2023-02-06T10:18:39.686Z,86.85
2023-02-06T10:19:39.662Z,86.58
2023-02-06T10:20:39.642Z,86.68
2023-02-06T10:21:39.636Z,86.58
2023-02-06T10:22:39.622Z,86.27
2023-02-06T10:23:39.667Z,86.37
2023-02-06T10:24:39.616Z,86.79
2023-02-06T10:25:39.694Z,86.68
2023-02-06T10:26:39.586Z,86.99
2023-02-06T10:27:39.567Z,86.99
2023-02-06T10:28:39.574Z,86.68
2023-02-06T10:29:39.547Z,86.68
2023-02-06T10:30:39.543Z,86.89
2023-02-06T10:31:39.556Z,86.27
2023-02-06T10:32:39.520Z,86.37
2023-02-06T10:33:39.518Z,86.37
2023-02-06T10:34:39.492Z,86.16
2023-02-06T10:35:39.700Z,85.91
2023-02-06T10:36:39.473Z,85.43
2023-02-06T10:37:39.473Z,86.06
2023-02-06T10:38:39.485Z,85.64
2023-02-06T10:39:39.488Z,85.53
2023-02-06T10:40:39.497Z,85.53
2023-02-06T10:41:39.477Z,85.64
2023-02-06T10:42:39.480Z,85.64
2023-02-06T10:43:39.436Z,85.33
2023-02-06T10:44:39.388Z,85.53
2023-02-06T10:45:39.551Z,85.74
2023-02-06T10:46:39.406Z,84.50
2023-02-06T10:47:39.359Z,85.12
2023-02-06T10:48:39.374Z,84.60
2023-02-06T10:49:40.330Z,84.66
2023-02-06T10:50:39.417Z,85.02
2023-02-06T10:51:39.317Z,85.12
2023-02-06T10:52:39.312Z,84.77
2023-02-06T10:53:39.301Z,84.28
2023-02-06T10:54:39.283Z,84.39
2023-02-06T10:55:39.315Z,84.28
2023-02-06T10:56:39.281Z,83.87
2023-02-06T10:57:39.281Z,84.18
2023-02-06T10:58:39.268Z,84.08
2023-02-06T10:59:39.237Z,84.60
2023-02-06T11:00:39.639Z,84.39
2023-02-06T11:01:39.331Z,84.60
2023-02-06T11:02:39.199Z,84.60
2023-02-06T11:03:39.887Z,84.70
2023-02-06T11:04:39.187Z,84.18
2023-02-06T11:05:39.675Z,84.91
2023-02-06T11:06:39.155Z,85.22
2023-02-06T11:07:39.143Z,85.02
2023-02-06T11:08:39.140Z,84.50
2023-02-06T11:09:39.133Z,85.12
2023-02-06T11:10:39.450Z,84.81
2023-02-06T11:11:39.155Z,84.53
2023-02-06T11:12:39.091Z,85.12
2023-02-06T11:13:39.081Z,85.53
2023-02-06T11:14:39.077Z,85.05
2023-02-06T11:15:39.308Z,85.47
2023-02-06T11:16:39.071Z,85.64
2023-02-06T11:17:39.034Z,85.74
2023-02-06T11:18:39.046Z,85.53
2023-02-06T11:19:39.020Z,85.53
2023-02-06T11:20:39.229Z,85.43
2023-02-06T11:21:38.992Z,85.53
2023-02-06T11:22:52.040Z,85.12
2023-02-06T11:23:39.970Z,85.53
2023-02-06T11:24:38.973Z,85.53
2023-02-06T11:25:39.489Z,85.68
2023-02-06T11:26:38.940Z,85.36
2023-02-06T11:27:38.977Z,85.68
2023-02-06T11:28:38.917Z,85.99
2023-02-06T11:29:38.917Z,85.58
2023-02-06T11:30:39.241Z,86.10
2023-02-06T11:31:38.908Z,85.68
2023-02-06T11:32:38.877Z,86.10
2023-02-06T11:33:38.863Z,86.30
2023-02-06T11:34:38.865Z,86.41
2023-02-06T11:35:39.390Z,86.20
2023-02-06T11:36:38.837Z,85.78
2023-02-06T11:37:38.819Z,85.68
2023-02-06T11:38:38.814Z,85.74
2023-02-06T11:39:38.809Z,85.85
2023-02-06T11:40:39.041Z,85.74
2023-02-06T11:41:38.777Z,85.85
2023-02-06T11:42:38.775Z,85.26
2023-02-06T11:43:38.775Z,84.95
2023-02-06T11:44:38.768Z,85.36
2023-02-06T11:45:39.250Z,85.58
2023-02-06T11:46:38.729Z,85.74
2023-02-06T11:47:38.712Z,85.78
2023-02-06T11:48:38.710Z,85.26
2023-02-06T11:49:38.704Z,85.16
2023-02-06T11:50:38.859Z,85.16
2023-02-06T11:51:38.670Z,85.16
2023-02-06T11:52:38.669Z,84.74
2023-02-06T11:53:38.648Z,84.53
2023-02-06T11:54:38.652Z,84.67
2023-02-06T11:55:39.070Z,85.05
2023-02-06T11:56:38.618Z,84.67
2023-02-06T11:57:38.604Z,85.20
2023-02-06T11:58:38.594Z,85.61
2023-02-06T11:59:38.629Z,85.89
2023-02-06T12:00:38.570Z,85.78
2023-02-06T12:01:38.564Z,85.51
2023-02-06T12:02:38.632Z,85.51
2023-02-06T12:03:38.567Z,85.58
2023-02-06T12:04:38.539Z,85.89
2023-02-06T12:05:38.889Z,85.47
2023-02-06T12:06:38.517Z,85.12
2023-02-06T12:07:38.506Z,84.91
2023-02-06T12:08:38.491Z,84.81
2023-02-06T12:09:38.490Z,85.26
2023-02-06T12:10:38.466Z,85.12
2023-02-06T12:11:38.457Z,84.81
2023-02-06T12:12:38.443Z,83.66
2023-02-06T12:13:38.439Z,83.49
2023-02-06T12:14:38.441Z,83.42
2023-02-06T12:15:46.517Z,83.95
2023-02-06T12:16:39.469Z,84.57
2023-02-06T12:17:38.389Z,85.16
2023-02-06T12:18:38.391Z,84.74
2023-02-06T12:19:38.387Z,84.95
2023-02-06T12:20:38.358Z,84.64
2023-02-06T12:21:38.346Z,84.22
2023-02-06T12:22:38.342Z,83.59
2023-02-06T12:23:38.325Z,82.94
2023-02-06T12:24:38.381Z,83.36
2023-02-06T12:25:38.594Z,84.02
2023-02-06T12:26:38.299Z,84.86
2023-02-06T12:27:39.435Z,85.42
2023-02-06T12:28:38.271Z,85.21
2023-02-06T12:29:38.268Z,85.31
2023-02-06T12:30:38.450Z,85.21
2023-02-06T12:31:38.580Z,85.00
2023-02-06T12:32:38.227Z,85.63
2023-02-06T12:33:38.229Z,85.27
2023-02-06T12:34:38.223Z,84.65
2023-02-06T12:35:38.658Z,85.17
2023-02-06T12:36:38.185Z,84.86
2023-02-06T12:37:38.172Z,84.50
2023-02-06T12:38:38.165Z,85.27
2023-02-06T12:39:38.169Z,85.13
2023-02-06T12:40:38.139Z,85.13
2023-02-06T12:41:38.125Z,84.82
2023-02-06T12:42:38.154Z,84.36
2023-02-06T12:43:38.107Z,83.95
2023-02-06T12:44:38.109Z,84.16
2023-02-06T12:45:38.475Z,84.16
2023-02-06T12:46:38.075Z,83.42
2023-02-06T12:47:38.079Z,83.53
2023-02-06T12:48:38.054Z,83.63
2023-02-06T12:49:38.052Z,83.95
2023-02-06T12:50:38.032Z,84.16
2023-02-06T12:51:38.018Z,84.16
2023-02-06T12:52:38.013Z,83.84
2023-02-06T12:53:37.999Z,83.39